Terminal Aerodrome Forecast
Issued by NWS North Platte, NE

Home | Current Version | Previous Version | Text Only | Print | Product List | Glossary Off
Versions: 1 2 3 4 5 6 7 8 9 10 11 12 13 14 15

546
FTUS43 KLBF 110520
TAFVTN
TAF
KVTN 110520Z 1106/1206 27010KT P6SM SCT250
     FM110800 28012G18KT P6SM FEW250 WS020/31045KT
     FM110900 29016G24KT P6SM FEW250
     FM111500 32019G33KT P6SM BKN120
     FM111800 33025G34KT P6SM OVC030
     FM120100 32010KT P6SM SCT040=

USA.gov is the U.S. government's official web portal to all federal, state and local government web resources and services.